Time;durP1;ratioP1;P1;durP2;ratioP2;P2;SDS_P1;SDS_P2;PMS_P1;PMS_P2;Temp;Humidity;BMP_temperature;BMP_pressure;BME280_temperature;BME280_humidity;BME280_pressure;Samples;Min_cycle;Max_cycle;Signal;HPM_P1;HPM_P2
2021/01/13 05:01:36;;;;;;;1.98;1.30;;;2.60;99.90;;;;;;5587552;23;20617;-71
2021/01/13 05:04:23;;;;;;;4.20;2.15;;;2.60;99.90;;;;;;4950987;29;20568;-71
2021/01/13 05:07:01;;;;;;;1.85;1.70;;;2.60;99.90;;;;;;4944596;28;20654;-71
2021/01/13 05:09:41;;;;;;;6.15;2.65;;;2.60;99.90;;;;;;4940510;29;20201;-71
2021/01/13 05:12:09;;;;;;;3.28;3.00;;;2.50;99.90;;;;;;4930527;28;20234;-72
2021/01/13 05:14:43;;;;;;;3.08;2.45;;;2.50;99.90;;;;;;4925299;29;20670;-71
2021/01/13 05:17:28;;;;;;;3.05;2.85;;;2.60;99.90;;;;;;4932476;29;20210;-71
2021/01/13 05:20:22;;;;;;;3.85;3.53;;;2.60;99.90;;;;;;4927704;29;20209;-72
2021/01/13 05:22:50;;;;;;;5.38;4.25;;;2.60;99.90;;;;;;4920027;29;20272;-72
2021/01/13 05:25:48;;;;;;;8.65;5.00;;;2.60;99.90;;;;;;4936919;29;20589;-72
2021/01/13 05:28:19;;;;;;;6.68;3.08;;;2.60;99.90;;;;;;4924079;29;20202;-72
2021/01/13 05:30:51;;;;;;;9.98;4.43;;;2.60;99.90;;;;;;4933657;29;20222;-72
2021/01/13 05:33:20;;;;;;;7.25;3.88;;;2.60;99.90;;;;;;4930729;29;20678;-72
2021/01/13 05:35:52;;;;;;;4.30;3.90;;;2.60;99.90;;;;;;4932410;29;20214;-72
2021/01/13 05:39:05;;;;;;;4.50;4.00;;;2.60;99.90;;;;;;4930324;29;20555;-72
2021/01/13 05:41:35;;;;;;;3.42;3.22;;;2.60;99.90;;;;;;4927044;29;20226;-71
2021/01/13 05:44:02;;;;;;;3.83;3.53;;;2.50;99.90;;;;;;4918271;29;20289;-71
2021/01/13 05:46:44;;;;;;;3.20;2.75;;;2.50;99.90;;;;;;4918932;29;20203;-70
2021/01/13 05:49:11;;;;;;;4.20;3.80;;;2.50;99.90;;;;;;4898830;29;20667;-72
2021/01/13 05:51:38;;;;;;;3.80;3.60;;;2.50;99.90;;;;;;4916935;29;20227;-71
2021/01/13 05:54:05;;;;;;;4.55;3.05;;;2.50;99.90;;;;;;4917925;29;20274;-71
2021/01/13 05:56:36;;;;;;;3.85;3.55;;;2.50;99.90;;;;;;4933788;29;20634;-72
2021/01/13 05:59:04;;;;;;;3.85;3.40;;;2.50;99.90;;;;;;4922095;29;20269;-72
2021/01/13 06:01:38;;;;;;;4.85;3.35;;;2.40;99.90;;;;;;4918400;29;20238;-71
2021/01/13 06:04:06;;;;;;;5.47;4.18;;;2.40;99.90;;;;;;4918912;29;20329;-71
2021/01/13 06:06:36;;;;;;;2.80;2.58;;;2.40;99.90;;;;;;4932109;29;20209;-71
2021/01/13 06:09:03;;;;;;;2.97;2.72;;;2.40;99.90;;;;;;4922330;29;20237;-72
2021/01/13 06:11:35;;;;;;;2.97;2.78;;;2.40;99.90;;;;;;4927438;29;20773;-72
2021/01/13 06:14:03;;;;;;;3.78;3.50;;;2.40;99.90;;;;;;4936088;29;20199;-71
2021/01/13 06:16:29;;;;;;;3.05;2.17;;;2.40;99.90;;;;;;4933234;29;20203;-71
2021/01/13 06:18:56;;;;;;;3.58;3.22;;;2.50;99.90;;;;;;4925889;29;20206;-71
2021/01/13 06:21:23;;;;;;;3.28;3.17;;;2.50;99.90;;;;;;4935896;29;20245;-71
2021/01/13 06:23:52;;;;;;;2.78;2.47;;;2.50;99.90;;;;;;4929811;29;20210;-72
2021/01/13 06:26:19;;;;;;;3.63;3.22;;;2.50;99.90;;;;;;4925307;29;20513;-72
2021/01/13 06:29:15;;;;;;;3.55;2.92;;;2.50;99.90;;;;;;4929969;29;20209;-71
2021/01/13 06:31:44;;;;;;;3.03;2.78;;;2.50;99.90;;;;;;4930416;29;20226;-71
2021/01/13 06:34:27;;;;;;;3.53;2.80;;;2.40;99.90;;;;;;4927480;29;20636;-70
2021/01/13 06:37:22;;;;;;;5.43;3.22;;;2.40;99.90;;;;;;4918641;29;20218;-70
2021/01/13 06:39:50;;;;;;;3.53;3.05;;;2.30;99.90;;;;;;4918385;29;20253;-70
2021/01/13 06:42:28;;;;;;;3.72;3.15;;;2.30;99.90;;;;;;4907656;29;20718;-71
2021/01/13 06:44:54;;;;;;;3.72;3.42;;;2.30;99.90;;;;;;4918553;29;20230;-70
2021/01/13 06:47:20;;;;;;;4.43;3.65;;;2.30;99.90;;;;;;4916370;29;20229;-70
2021/01/13 06:49:49;;;;;;;3.38;3.10;;;2.30;99.90;;;;;;4916507;29;20222;-71
2021/01/13 06:52:28;;;;;;;2.83;2.72;;;2.30;99.90;;;;;;4917418;29;20222;-70
2021/01/13 06:55:00;;;;;;;2.50;2.30;;;2.40;99.90;;;;;;4928431;29;20285;-71
2021/01/13 06:57:27;;;;;;;6.07;4.47;;;2.40;99.90;;;;;;4933399;29;20230;-71
2021/01/13 06:59:53;;;;;;;8.35;3.30;;;2.40;99.90;;;;;;4923774;29;20218;-71
2021/01/13 07:02:30;;;;;;;4.00;3.10;;;2.40;99.90;;;;;;4916002;29;20282;-69
2021/01/13 07:04:56;;;;;;;3.88;3.05;;;2.40;99.90;;;;;;4925713;29;20229;-69
2021/01/13 07:07:22;;;;;;;4.72;4.32;;;2.40;99.90;;;;;;4933480;29;20213;-70
2021/01/13 07:09:50;;;;;;;3.17;2.92;;;2.40;99.90;;;;;;4932081;29;20206;-69
2021/01/13 07:12:20;;;;;;;4.55;4.13;;;2.40;99.90;;;;;;4922437;29;20366;-69
2021/01/13 07:14:49;;;;;;;4.15;3.50;;;2.50;99.90;;;;;;4916507;29;20655;-69
2021/01/13 07:17:17;;;;;;;6.03;4.50;;;2.50;99.90;;;;;;4931867;29;20570;-69
2021/01/13 07:19:48;;;;;;;4.55;4.15;;;2.50;99.90;;;;;;4927938;29;20214;-69
2021/01/13 07:22:15;;;;;;;6.45;5.15;;;2.50;99.90;;;;;;4915360;29;20222;-70
2021/01/13 07:24:43;;;;;;;7.43;4.82;;;2.50;99.90;;;;;;4930916;29;20225;-70
2021/01/13 07:27:10;;;;;;;6.93;5.00;;;2.50;99.90;;;;;;4918412;29;20202;-70
2021/01/13 07:29:38;;;;;;;8.57;5.28;;;2.50;99.90;;;;;;4915854;29;20210;-70
2021/01/13 07:32:06;;;;;;;5.50;4.45;;;2.50;99.90;;;;;;4919852;29;20242;-70
2021/01/13 07:34:37;;;;;;;6.65;4.85;;;2.40;99.90;;;;;;4925231;29;20198;-70
2021/01/13 07:37:06;;;;;;;6.30;5.15;;;2.50;99.90;;;;;;4918682;29;20198;-70
2021/01/13 07:40:11;;;;;;;6.72;4.90;;;2.50;99.90;;;;;;4921229;29;20202;-70
2021/01/13 07:42:38;;;;;;;4.88;4.47;;;2.50;99.90;;;;;;4921855;29;20206;-70
2021/01/13 07:45:08;;;;;;;11.40;4.55;;;2.50;99.90;;;;;;4934209;29;20229;-70
2021/01/13 07:48:19;;;;;;;9.13;5.25;;;2.60;99.90;;;;;;4920511;29;20639;-70
2021/01/13 07:50:49;;;;;;;11.73;5.82;;;2.60;99.90;;;;;;4919260;29;20233;-70
2021/01/13 07:53:24;;;;;;;9.15;5.47;;;2.60;99.90;;;;;;4928134;29;20221;-69
2021/01/13 07:55:57;;;;;;;6.03;4.85;;;2.60;99.90;;;;;;4928584;29;20199;-69
2021/01/13 07:58:26;;;;;;;4.97;4.50;;;2.70;99.90;;;;;;4915058;29;20210;-70
2021/01/13 08:01:05;;;;;;;8.73;4.50;;;2.70;99.90;;;;;;4913887;29;20234;-70
2021/01/13 08:04:08;;;;;;;8.02;5.25;;;2.70;99.90;;;;;;4911574;29;20386;-70
2021/01/13 08:06:35;;;;;;;9.00;4.50;;;2.70;99.90;;;;;;4915078;29;20206;-72
2021/01/13 08:09:13;;;;;;;6.38;4.35;;;2.80;99.90;;;;;;4902499;29;20213;-68
2021/01/13 08:12:16;;;;;;;4.95;3.80;;;2.90;99.90;;;;;;4914139;29;20745;-69
2021/01/13 08:15:03;;;;;;;6.18;3.83;;;2.90;99.90;;;;;;4913523;29;20198;-68
2021/01/13 08:17:39;;;;;;;6.22;3.80;;;2.90;99.90;;;;;;4912333;29;20216;-70
2021/01/13 08:20:37;;;;;;;4.30;3.25;;;2.90;99.90;;;;;;4919426;29;20202;-69
2021/01/13 08:23:09;;;;;;;3.65;3.35;;;2.90;99.90;;;;;;4914237;29;20217;-69
2021/01/13 08:25:38;;;;;;;2.90;2.67;;;3.00;99.90;;;;;;4915191;29;20238;-69
2021/01/13 08:28:10;;;;;;;5.97;2.55;;;3.00;99.90;;;;;;4915087;29;20203;-68
2021/01/13 08:30:41;;;;;;;7.25;3.55;;;3.00;99.90;;;;;;4914976;29;20301;-68
2021/01/13 08:33:18;;;;;;;7.20;3.85;;;3.00;99.90;;;;;;4919406;29;20215;-69
2021/01/13 08:35:48;;;;;;;4.10;3.20;;;3.00;99.90;;;;;;4927455;29;20207;-69
2021/01/13 08:38:14;;;;;;;2.63;2.42;;;3.00;99.90;;;;;;4922492;29;20214;-69
2021/01/13 08:40:41;;;;;;;4.32;2.83;;;3.00;99.90;;;;;;4922484;29;20230;-69
2021/01/13 08:43:11;;;;;;;3.00;2.80;;;3.10;99.90;;;;;;4921265;29;20290;-69
2021/01/13 08:45:39;;;;;;;3.65;2.95;;;3.00;99.90;;;;;;4923199;29;20254;-69
2021/01/13 08:48:09;;;;;;;5.35;3.58;;;3.10;99.90;;;;;;4936340;29;20210;-69
2021/01/13 08:50:36;;;;;;;9.45;4.60;;;3.10;99.90;;;;;;4936015;29;20828;-68
2021/01/13 08:53:04;;;;;;;5.32;4.43;;;3.20;99.90;;;;;;4926606;29;20207;-68
2021/01/13 08:55:31;;;;;;;9.05;4.85;;;3.10;99.90;;;;;;4919739;29;20209;-68
2021/01/13 08:58:04;;;;;;;7.18;5.03;;;3.10;99.90;;;;;;4936504;29;20636;-69
2021/01/13 09:00:32;;;;;;;8.75;4.50;;;3.10;99.90;;;;;;4934142;29;20223;-69
2021/01/13 09:03:14;;;;;;;5.38;4.85;;;3.10;99.90;;;;;;4919074;29;20586;-69
2021/01/13 09:05:42;;;;;;;5.40;4.60;;;3.10;99.90;;;;;;4921763;29;20631;-69
2021/01/13 09:08:10;;;;;;;6.32;4.65;;;3.10;99.90;;;;;;4937087;29;20276;-69
2021/01/13 09:10:51;;;;;;;7.10;4.88;;;3.10;99.90;;;;;;4933141;29;20245;-69
2021/01/13 09:13:43;;;;;;;6.70;4.65;;;3.20;99.90;;;;;;4917751;29;20217;-69
2021/01/13 09:16:33;;;;;;;8.27;4.22;;;3.20;99.90;;;;;;4925584;29;20237;-68
2021/01/13 09:19:08;;;;;;;7.20;4.70;;;3.20;99.90;;;;;;4936941;29;20582;-69
2021/01/13 09:21:36;;;;;;;4.10;3.67;;;3.20;99.90;;;;;;4935787;28;20288;-68
2021/01/13 09:24:04;;;;;;;4.53;3.97;;;3.20;99.90;;;;;;4928778;29;20207;-68
2021/01/13 09:26:33;;;;;;;6.88;5.18;;;3.10;99.90;;;;;;4898327;29;20276;-68
2021/01/13 09:29:01;;;;;;;5.55;5.03;;;3.20;99.90;;;;;;4898745;29;20229;-70
2021/01/13 09:31:27;;;;;;;7.00;5.03;;;3.20;99.90;;;;;;4935022;29;20777;-70
2021/01/13 09:33:53;;;;;;;17.63;7.72;;;3.20;99.90;;;;;;4929757;28;20213;-71
2021/01/13 09:36:20;;;;;;;6.03;5.50;;;3.20;99.90;;;;;;4933700;29;20213;-70
2021/01/13 09:38:48;;;;;;;11.57;6.88;;;3.30;99.90;;;;;;4936531;29;20405;-70
2021/01/13 09:41:23;;;;;;;9.98;5.25;;;3.30;99.90;;;;;;4919232;29;20395;-68
2021/01/13 09:43:50;;;;;;;6.47;5.85;;;3.40;99.90;;;;;;4916061;29;20702;-69
2021/01/13 09:46:30;;;;;;;12.55;5.57;;;3.40;99.90;;;;;;4933472;29;20233;-68
2021/01/13 09:48:58;;;;;;;13.63;5.88;;;3.50;99.90;;;;;;4936782;29;20748;-68
2021/01/13 09:51:25;;;;;;;8.02;6.18;;;3.50;99.90;;;;;;4918034;29;20230;-68
2021/01/13 09:53:54;;;;;;;6.43;5.78;;;3.50;99.90;;;;;;4916749;29;20214;-68
2021/01/13 09:56:22;;;;;;;8.27;5.47;;;3.50;99.90;;;;;;4933098;29;20577;-68
2021/01/13 09:58:51;;;;;;;7.50;5.53;;;3.60;99.90;;;;;;4936394;29;20629;-69
2021/01/13 10:01:19;;;;;;;8.20;5.45;;;3.60;99.90;;;;;;4919205;29;20277;-69
2021/01/13 10:03:48;;;;;;;7.03;4.97;;;3.60;99.90;;;;;;4917094;29;20211;-71
2021/01/13 10:06:19;;;;;;;6.82;4.53;;;3.60;99.90;;;;;;4929248;29;20227;-69
2021/01/13 10:08:46;;;;;;;4.75;4.30;;;3.70;99.90;;;;;;4936423;29;20209;-70
2021/01/13 10:11:14;;;;;;;9.13;3.97;;;3.70;99.90;;;;;;4935015;29;20559;-70
2021/01/13 10:13:42;;;;;;;5.88;4.20;;;3.70;99.90;;;;;;4931681;29;20646;-70
2021/01/13 10:16:10;;;;;;;6.88;4.80;;;3.80;99.90;;;;;;4930523;29;20206;-71
2021/01/13 10:18:49;;;;;;;5.18;4.20;;;3.80;99.90;;;;;;4930725;29;20207;-69
2021/01/13 10:21:16;;;;;;;7.47;4.20;;;3.80;99.90;;;;;;4931212;29;20229;-69
2021/01/13 10:23:44;;;;;;;2.83;2.70;;;3.80;99.90;;;;;;4929625;29;20632;-70
2021/01/13 10:26:10;;;;;;;8.60;4.50;;;3.90;99.90;;;;;;4916117;29;20238;-70
2021/01/13 10:28:38;;;;;;;5.43;4.60;;;3.90;99.90;;;;;;4920640;29;20205;-71
2021/01/13 10:31:05;;;;;;;4.90;3.80;;;3.80;99.90;;;;;;4921525;29;20227;-71
2021/01/13 10:33:58;;;;;;;4.47;3.67;;;3.90;99.90;;;;;;4918929;29;20211;-72
2021/01/13 10:36:37;;;;;;;7.95;4.57;;;4.00;99.90;;;;;;4874313;29;20311;-70
2021/01/13 10:39:07;;;;;;;4.30;3.90;;;4.10;99.90;;;;;;4919807;29;20206;-70
2021/01/13 10:41:35;;;;;;;11.80;5.78;;;4.20;99.90;;;;;;4935423;29;20229;-70
2021/01/13 10:44:08;;;;;;;12.65;4.68;;;4.10;99.90;;;;;;4925184;29;20892;-70
2021/01/13 10:46:52;;;;;;;10.88;4.38;;;4.10;99.90;;;;;;4915958;29;20218;-70
2021/01/13 10:49:21;;;;;;;3.97;3.65;;;4.20;99.90;;;;;;4927719;29;20254;-68
2021/01/13 10:51:49;;;;;;;5.22;4.10;;;4.30;99.90;;;;;;4919581;29;20253;-70
2021/01/13 10:54:18;;;;;;;7.30;3.75;;;4.30;99.90;;;;;;4919019;29;20620;-68
2021/01/13 10:56:45;;;;;;;5.30;4.13;;;4.30;99.90;;;;;;4915302;29;20309;-70
2021/01/13 10:59:17;;;;;;;14.02;4.07;;;4.30;99.90;;;;;;4919771;29;20290;-69
2021/01/13 11:01:46;;;;;;;9.02;4.10;;;4.40;99.90;;;;;;4916211;29;20290;-72
2021/01/13 11:04:27;;;;;;;5.05;2.90;;;4.50;99.90;;;;;;4916937;29;20207;-70
2021/01/13 11:06:59;;;;;;;8.98;4.50;;;4.50;99.90;;;;;;4915997;29;20357;-71
2021/01/13 11:09:27;;;;;;;7.30;3.55;;;4.50;99.90;;;;;;4918686;29;20206;-71
2021/01/13 11:11:54;;;;;;;4.10;2.78;;;4.70;99.90;;;;;;4927269;29;20233;-72
2021/01/13 11:14:39;;;;;;;6.25;3.25;;;4.70;99.90;;;;;;4926401;29;20259;-69
2021/01/13 11:17:09;;;;;;;4.18;3.10;;;4.80;99.90;;;;;;4919125;29;20206;-70
2021/01/13 11:19:35;;;;;;;4.80;3.08;;;4.80;99.90;;;;;;4923309;28;20210;-70
2021/01/13 11:22:02;;;;;;;5.30;3.03;;;4.80;99.90;;;;;;4925015;29;20740;-69
2021/01/13 11:24:37;;;;;;;8.77;4.88;;;4.80;99.90;;;;;;4915606;29;20229;-70
2021/01/13 11:27:06;;;;;;;7.28;4.22;;;4.80;99.90;;;;;;4925818;29;20205;-70
2021/01/13 11:29:35;;;;;;;9.05;4.50;;;4.80;99.90;;;;;;4917450;29;20255;-69
2021/01/13 11:32:03;;;;;;;6.47;4.15;;;4.80;99.90;;;;;;4927299;29;20557;-70
2021/01/13 11:34:29;;;;;;;4.35;3.92;;;4.80;99.90;;;;;;4925972;29;20213;-70
2021/01/13 11:37:18;;;;;;;7.63;5.60;;;4.80;99.90;;;;;;4925515;29;20273;-70
2021/01/13 11:39:47;;;;;;;11.13;3.70;;;4.90;99.90;;;;;;4932314;29;20218;-69
2021/01/13 11:42:26;;;;;;;3.45;3.15;;;5.00;99.90;;;;;;4920130;29;20232;-68
2021/01/13 11:45:06;;;;;;;9.98;4.43;;;4.90;99.90;;;;;;4919092;29;20214;-68
2021/01/13 11:47:34;;;;;;;3.58;2.33;;;5.00;99.90;;;;;;4925949;29;20202;-69
2021/01/13 11:50:11;;;;;;;3.30;3.03;;;5.00;99.90;;;;;;4915616;29;20225;-69
2021/01/13 11:52:41;;;;;;;3.72;2.80;;;5.00;99.90;;;;;;4929026;29;20217;-69
2021/01/13 11:55:08;;;;;;;2.85;2.63;;;5.10;99.90;;;;;;4921986;29;20632;-69
2021/01/13 11:57:35;;;;;;;5.50;3.95;;;5.10;99.90;;;;;;4927022;29;20249;-68
2021/01/13 12:00:14;;;;;;;4.80;2.88;;;5.10;99.90;;;;;;4916310;29;20207;-69
2021/01/13 12:02:40;;;;;;;3.63;2.75;;;5.20;99.90;;;;;;4922452;29;20210;-69
2021/01/13 12:05:08;;;;;;;4.93;2.45;;;5.20;99.90;;;;;;4926297;29;20241;-68
2021/01/13 12:07:34;;;;;;;4.20;1.83;;;5.20;99.90;;;;;;4932036;29;20290;-68
2021/01/13 12:10:11;;;;;;;5.30;1.90;;;5.20;99.90;;;;;;4932062;29;20202;-68
2021/01/13 12:12:37;;;;;;;6.60;2.90;;;5.10;99.90;;;;;;4927807;29;20324;-68
2021/01/13 12:15:06;;;;;;;3.25;2.35;;;5.20;99.90;;;;;;4920916;29;20218;-68
2021/01/13 12:17:34;;;;;;;8.98;2.40;;;5.20;99.90;;;;;;4919367;29;20214;-68
2021/01/13 12:20:00;;;;;;;3.85;2.30;;;5.30;99.90;;;;;;4919858;29;20206;-68
2021/01/13 12:22:34;;;;;;;6.10;2.72;;;5.30;99.90;;;;;;4918747;29;20257;-68
2021/01/13 12:25:00;;;;;;;7.53;2.55;;;5.40;99.90;;;;;;4919135;29;20695;-68
2021/01/13 12:27:27;;;;;;;8.63;4.40;;;5.40;99.90;;;;;;4918909;29;20213;-67
2021/01/13 12:30:09;;;;;;;2.58;2.30;;;5.40;99.90;;;;;;4920014;29;20214;-68
2021/01/13 12:32:37;;;;;;;8.02;3.38;;;5.50;99.90;;;;;;4930970;29;20210;-68
2021/01/13 12:35:04;;;;;;;3.33;2.67;;;5.50;99.90;;;;;;4919409;29;20210;-68
2021/01/13 12:37:30;;;;;;;4.00;2.20;;;5.50;99.90;;;;;;4920179;29;20207;-68
2021/01/13 12:39:57;;;;;;;3.58;2.05;;;5.50;99.90;;;;;;4921072;29;20679;-68
2021/01/13 12:42:30;;;;;;;4.38;1.80;;;5.50;99.90;;;;;;4919527;29;20582;-68
2021/01/13 12:44:57;;;;;;;6.63;2.95;;;5.50;99.90;;;;;;4919568;29;20233;-68
2021/01/13 12:47:25;;;;;;;7.43;2.40;;;5.50;99.90;;;;;;4920055;29;20261;-68
2021/01/13 12:49:53;;;;;;;3.25;3.03;;;5.50;99.90;;;;;;4918823;29;20676;-69
2021/01/13 12:52:19;;;;;;;4.07;2.35;;;5.50;99.90;;;;;;4920625;29;20231;-70
2021/01/13 12:54:45;;;;;;;4.18;2.20;;;5.40;99.90;;;;;;4916493;29;20210;-68
2021/01/13 12:57:12;;;;;;;4.25;2.63;;;5.50;99.90;;;;;;4917234;29;20301;-70
2021/01/13 12:59:39;;;;;;;6.03;1.95;;;5.40;99.90;;;;;;4917544;29;20218;-70
2021/01/13 13:02:06;;;;;;;2.95;2.47;;;5.50;99.90;;;;;;4913416;29;20238;-70
2021/01/13 13:04:32;;;;;;;4.93;2.30;;;5.50;99.90;;;;;;4913614;29;20246;-69
2021/01/13 13:06:59;;;;;;;2.33;2.13;;;5.40;99.90;;;;;;4918818;29;20211;-70
2021/01/13 13:09:25;;;;;;;8.80;2.25;;;5.40;99.90;;;;;;4918746;29;20210;-68
2021/01/13 13:11:51;;;;;;;4.95;2.47;;;5.40;99.90;;;;;;4915058;29;20684;-69
2021/01/13 13:14:19;;;;;;;7.20;3.15;;;5.40;99.90;;;;;;4909768;29;20207;-69
2021/01/13 13:16:45;;;;;;;4.45;1.80;;;5.40;99.90;;;;;;4918995;29;20211;-68
2021/01/13 13:19:11;;;;;;;2.15;2.05;;;5.40;99.90;;;;;;4918521;29;20202;-69
2021/01/13 13:21:37;;;;;;;2.05;1.55;;;5.40;99.90;;;;;;4917816;29;20235;-66
2021/01/13 13:24:05;;;;;;;5.25;1.85;;;5.30;99.90;;;;;;4917898;29;20262;-69
2021/01/13 13:26:31;;;;;;;8.45;4.20;;;5.30;99.90;;;;;;4919189;29;20238;-69
2021/01/13 13:28:57;;;;;;;4.57;2.70;;;5.20;99.90;;;;;;4935139;29;20218;-69
2021/01/13 13:31:23;;;;;;;4.03;2.42;;;5.20;99.90;;;;;;4940301;28;20793;-69
2021/01/13 13:33:50;;;;;;;6.70;5.93;;;5.10;99.90;;;;;;4926704;29;20218;-69
2021/01/13 13:36:17;;;;;;;3.25;2.08;;;5.10;99.90;;;;;;4920710;29;20211;-68
2021/01/13 13:38:43;;;;;;;4.18;1.65;;;5.10;99.90;;;;;;4931242;29;20662;-69
2021/01/13 13:41:11;;;;;;;2.60;2.40;;;5.10;99.90;;;;;;4935385;29;20236;-69
2021/01/13 13:43:37;;;;;;;5.10;2.15;;;5.10;99.90;;;;;;4922972;28;20219;-69
2021/01/13 13:46:05;;;;;;;2.67;1.75;;;5.10;99.90;;;;;;4916760;29;20703;-69
2021/01/13 13:48:31;;;;;;;4.28;3.08;;;5.10;99.90;;;;;;4928033;29;20311;-69
2021/01/13 13:50:58;;;;;;;10.32;3.53;;;5.00;99.90;;;;;;4935798;29;20694;-71
2021/01/13 13:53:25;;;;;;;4.35;2.80;;;5.00;99.90;;;;;;4924689;29;20207;-70
2021/01/13 13:55:51;;;;;;;4.47;2.03;;;5.10;99.90;;;;;;4916571;29;20210;-69
2021/01/13 13:58:18;;;;;;;6.40;2.83;;;5.00;99.90;;;;;;4925584;29;20214;-69
2021/01/13 14:00:44;;;;;;;2.30;1.77;;;5.00;99.90;;;;;;4935793;29;20272;-69
2021/01/13 14:03:10;;;;;;;1.75;1.65;;;4.90;99.90;;;;;;4923764;29;20214;-69
2021/01/13 14:05:36;;;;;;;7.47;4.72;;;4.90;99.90;;;;;;4915250;29;20222;-69
2021/01/13 14:08:02;;;;;;;11.52;2.60;;;4.90;99.90;;;;;;4916368;29;20627;-69
2021/01/13 14:10:29;;;;;;;2.95;2.40;;;4.90;99.90;;;;;;4916123;29;20255;-69
2021/01/13 14:12:55;;;;;;;1.75;1.17;;;4.80;99.90;;;;;;4917778;29;20223;-68
2021/01/13 14:15:22;;;;;;;1.27;0.68;;;4.80;99.90;;;;;;4919207;29;20560;-69
2021/01/13 14:17:48;;;;;;;0.40;0.40;;;4.20;99.90;;;;;;4916248;29;20281;-71
2021/01/13 14:20:14;;;;;;;0.65;0.65;;;3.50;99.90;;;;;;4934910;29;20218;-71
2021/01/13 14:22:41;;;;;;;0.20;0.20;;;3.10;99.90;;;;;;4929363;29;20214;-70
2021/01/13 14:25:08;;;;;;;0.40;0.30;;;2.80;99.90;;;;;;4932428;29;20222;-70
2021/01/13 14:27:34;;;;;;;0.50;0.50;;;2.50;99.90;;;;;;4915791;29;20206;-70
2021/01/13 14:30:02;;;;;;;3.70;0.90;;;2.40;99.90;;;;;;4931083;29;20213;-69
2021/01/13 14:32:29;;;;;;;4.13;1.05;;;2.30;99.90;;;;;;4931628;28;20230;-69
2021/01/13 14:34:55;;;;;;;1.38;0.57;;;2.20;99.90;;;;;;4930690;29;20205;-69
2021/01/13 14:37:21;;;;;;;1.55;1.45;;;2.10;99.90;;;;;;4921784;29;20215;-69
2021/01/13 14:39:47;;;;;;;1.10;0.30;;;2.10;99.90;;;;;;4927845;29;20268;-69
2021/01/13 14:42:14;;;;;;;4.60;2.97;;;2.10;99.90;;;;;;4922899;28;20234;-69
2021/01/13 14:44:41;;;;;;;1.75;1.15;;;2.10;99.90;;;;;;4910792;29;20854;-68
2021/01/13 14:47:08;;;;;;;1.85;0.93;;;2.00;99.90;;;;;;4923902;29;20217;-68
2021/01/13 14:49:35;;;;;;;3.53;0.90;;;2.00;99.90;;;;;;4916838;29;20540;-68
2021/01/13 14:52:04;;;;;;;0.85;0.85;;;2.00;99.90;;;;;;4922481;29;20634;-68
2021/01/13 14:54:30;;;;;;;4.18;1.35;;;2.10;99.90;;;;;;4915492;29;20784;-69
2021/01/13 14:56:56;;;;;;;4.70;1.42;;;2.10;99.90;;;;;;4914549;29;20215;-69
2021/01/13 14:59:22;;;;;;;2.17;1.10;;;2.10;99.90;;;;;;4915076;29;20218;-69
2021/01/13 15:01:49;;;;;;;1.83;0.80;;;2.10;99.90;;;;;;4918772;29;20238;-69
2021/01/13 15:04:15;;;;;;;4.72;1.27;;;2.00;99.90;;;;;;4915413;29;20301;-70
2021/01/13 15:06:42;;;;;;;4.55;1.35;;;2.00;99.90;;;;;;4914983;29;20226;-70
2021/01/13 15:09:08;;;;;;;4.88;1.58;;;2.00;99.90;;;;;;4916056;29;20210;-70
2021/01/13 15:11:35;;;;;;;3.92;1.20;;;2.00;99.90;;;;;;4914427;29;20606;-69
2021/01/13 15:14:01;;;;;;;1.40;1.30;;;2.00;99.90;;;;;;4917704;29;20206;-70
2021/01/13 15:16:27;;;;;;;4.53;1.40;;;2.00;99.90;;;;;;4916177;29;20353;-70
2021/01/13 15:18:53;;;;;;;5.28;3.42;;;2.00;99.90;;;;;;4922664;29;20622;-69
2021/01/13 15:21:21;;;;;;;2.70;2.00;;;2.10;99.90;;;;;;4923467;29;20226;-69
2021/01/13 15:23:49;;;;;;;1.35;1.23;;;2.10;99.90;;;;;;4930345;29;20202;-69
2021/01/13 15:26:16;;;;;;;6.47;2.35;;;2.10;99.90;;;;;;4920927;29;20597;-69
2021/01/13 15:28:43;;;;;;;2.05;1.80;;;2.10;99.90;;;;;;4915716;29;20207;-69
2021/01/13 15:31:10;;;;;;;3.35;2.67;;;2.20;99.90;;;;;;4914618;29;20230;-69
2021/01/13 15:33:37;;;;;;;4.55;2.55;;;2.20;99.90;;;;;;4918187;29;20206;-69
2021/01/13 15:36:04;;;;;;;3.25;1.85;;;2.20;99.90;;;;;;4923634;29;20665;-69
2021/01/13 15:38:30;;;;;;;3.65;2.78;;;2.20;99.90;;;;;;4926847;29;20214;-69
2021/01/13 15:40:58;;;;;;;2.15;2.05;;;2.20;99.90;;;;;;4926613;29;20233;-69
2021/01/13 15:43:25;;;;;;;6.50;2.40;;;2.20;99.90;;;;;;4928783;29;20233;-70
2021/01/13 15:45:51;;;;;;;6.43;1.50;;;2.30;99.90;;;;;;4935186;29;20229;-70
2021/01/13 15:48:19;;;;;;;4.03;2.20;;;2.30;99.90;;;;;;4922059;29;20270;-70
2021/01/13 15:50:45;;;;;;;3.13;1.50;;;2.20;99.90;;;;;;4922277;29;20241;-70
2021/01/13 15:53:13;;;;;;;5.35;1.95;;;2.30;99.90;;;;;;4938499;29;20208;-70
2021/01/13 15:55:40;;;;;;;2.58;2.40;;;2.20;99.90;;;;;;4930223;29;20257;-69
2021/01/13 15:58:09;;;;;;;3.03;2.28;;;2.30;99.90;;;;;;4932655;29;20667;-69
2021/01/13 16:00:36;;;;;;;3.58;2.55;;;2.30;99.90;;;;;;4923858;29;20652;-70
2021/01/13 16:03:04;;;;;;;10.48;2.80;;;2.30;99.90;;;;;;4929036;29;20202;-70
2021/01/13 16:05:30;;;;;;;5.15;1.60;;;2.40;99.90;;;;;;4918358;29;20227;-70
2021/01/13 16:07:57;;;;;;;6.18;2.13;;;2.40;99.90;;;;;;4932395;29;20202;-70
2021/01/13 16:10:24;;;;;;;6.53;2.80;;;2.50;99.90;;;;;;4929706;29;20199;-69
2021/01/13 16:12:53;;;;;;;4.85;2.40;;;2.50;99.90;;;;;;4928574;29;20222;-70
2021/01/13 16:15:21;;;;;;;10.07;3.15;;;2.50;99.90;;;;;;4918869;29;20206;-69
2021/01/13 16:17:50;;;;;;;8.65;3.33;;;2.50;99.90;;;;;;4918155;29;20258;-69
2021/01/13 16:20:17;;;;;;;2.03;1.45;;;2.50;99.90;;;;;;4918308;29;20353;-69
2021/01/13 16:22:43;;;;;;;5.45;2.35;;;2.50;99.90;;;;;;4929336;29;20228;-69
2021/01/13 16:25:11;;;;;;;4.63;2.15;;;2.50;99.90;;;;;;4920227;29;20218;-69
2021/01/13 16:27:38;;;;;;;3.67;2.03;;;2.50;99.90;;;;;;4917382;29;20210;-69
2021/01/13 16:30:06;;;;;;;3.35;1.38;;;2.50;99.90;;;;;;4918538;29;20218;-69
2021/01/13 16:32:38;;;;;;;4.60;2.13;;;2.50;99.90;;;;;;4917539;29;20694;-70
2021/01/13 16:35:05;;;;;;;3.67;2.00;;;2.50;99.90;;;;;;4918141;29;20727;-67
2021/01/13 16:37:32;;;;;;;4.22;2.45;;;2.50;99.90;;;;;;4924807;29;20198;-69
2021/01/13 16:39:58;;;;;;;4.47;2.47;;;2.50;99.90;;;;;;4918326;29;20207;-70
2021/01/13 16:42:26;;;;;;;4.72;3.10;;;2.40;99.90;;;;;;4921206;29;20226;-69
2021/01/13 16:44:54;;;;;;;3.22;2.92;;;2.50;99.90;;;;;;4924956;29;20237;-68
2021/01/13 16:47:22;;;;;;;2.90;2.25;;;2.50;99.90;;;;;;4920872;29;20493;-70
2021/01/13 16:49:49;;;;;;;2.20;2.20;;;2.40;99.90;;;;;;4917707;29;20207;-69
2021/01/13 16:52:17;;;;;;;2.97;2.35;;;2.40;99.90;;;;;;4915493;29;20711;-69
2021/01/13 16:54:44;;;;;;;4.22;2.38;;;2.40;99.90;;;;;;4916985;29;20214;-72
2021/01/13 16:57:14;;;;;;;5.07;2.80;;;2.40;99.90;;;;;;4912512;29;20219;-70
2021/01/13 16:59:50;;;;;;;2.38;2.10;;;2.40;99.90;;;;;;4898957;29;20226;-70
2021/01/13 17:02:19;;;;;;;8.02;2.22;;;2.40;99.90;;;;;;4936122;29;20635;-70
2021/01/13 17:04:45;;;;;;;3.05;2.72;;;2.40;99.90;;;;;;4916746;29;20739;-70
2021/01/13 17:07:20;;;;;;;2.53;2.33;;;2.50;99.90;;;;;;4917969;29;20210;-69
2021/01/13 17:09:46;;;;;;;8.55;3.65;;;2.50;99.90;;;;;;4919502;29;20245;-70
2021/01/13 17:12:14;;;;;;;1.88;1.70;;;2.50;99.90;;;;;;4899675;29;20231;-70
2021/01/13 17:14:45;;;;;;;2.45;2.25;;;2.50;99.90;;;;;;4925620;29;20574;-70
2021/01/13 17:17:12;;;;;;;9.90;4.15;;;2.40;99.90;;;;;;4917254;29;20264;-70
2021/01/13 17:19:38;;;;;;;3.35;3.05;;;2.40;99.90;;;;;;4924251;29;20944;-70
2021/01/13 17:22:04;;;;;;;5.38;3.20;;;2.40;99.90;;;;;;4917239;29;20238;-70
2021/01/13 17:24:32;;;;;;;3.45;3.13;;;2.40;99.90;;;;;;4925406;29;20207;-70
2021/01/13 17:26:58;;;;;;;1.70;1.60;;;2.30;99.90;;;;;;4917009;29;20294;-70
2021/01/13 17:29:25;;;;;;;2.30;2.20;;;2.30;99.90;;;;;;4929172;29;20280;-70
2021/01/13 17:31:51;;;;;;;2.10;1.90;;;2.20;99.90;;;;;;4931106;29;20230;-70
2021/01/13 17:34:17;;;;;;;2.03;1.92;;;2.20;99.90;;;;;;4922308;29;20213;-70
2021/01/13 17:36:44;;;;;;;1.98;1.45;;;2.20;99.90;;;;;;4920531;29;20206;-70
2021/01/13 17:39:10;;;;;;;3.03;2.08;;;2.10;99.90;;;;;;4936040;29;20540;-70
2021/01/13 17:41:37;;;;;;;2.05;1.95;;;2.10;99.90;;;;;;4933410;29;20234;-71
2021/01/13 17:44:04;;;;;;;2.95;2.30;;;2.00;99.90;;;;;;4921270;29;20696;-70
2021/01/13 17:46:31;;;;;;;2.80;2.70;;;2.00;99.90;;;;;;4920879;29;20230;-70
2021/01/13 17:48:58;;;;;;;3.22;3.22;;;2.00;99.90;;;;;;4927350;29;20217;-71
2021/01/13 17:51:27;;;;;;;3.40;3.28;;;2.00;99.90;;;;;;4917398;29;20242;-71
2021/01/13 17:53:54;;;;;;;3.53;3.28;;;2.00;99.90;;;;;;4917552;29;20699;-69
2021/01/13 17:56:20;;;;;;;3.20;3.00;;;1.90;99.90;;;;;;4928527;29;20210;-70
2021/01/13 17:58:48;;;;;;;3.03;2.80;;;1.90;99.90;;;;;;4925021;29;20305;-70
2021/01/13 18:01:14;;;;;;;2.80;2.70;;;1.80;99.90;;;;;;4916546;29;20254;-70
2021/01/13 18:03:43;;;;;;;1.80;1.80;;;1.80;99.90;;;;;;4913534;29;20214;-70
2021/01/13 18:06:14;;;;;;;3.05;2.78;;;1.80;99.90;;;;;;4916958;29;20306;-70
2021/01/13 18:08:40;;;;;;;3.60;3.40;;;1.80;99.90;;;;;;4922519;29;20206;-69
2021/01/13 18:11:06;;;;;;;2.67;2.08;;;1.80;99.90;;;;;;4920971;29;20721;-69
2021/01/13 18:13:33;;;;;;;3.97;3.00;;;1.80;99.90;;;;;;4917144;29;20229;-69